sensor_id;sensor_type;location;lat;lon;timestamp;pressure;altitude;pressure_sealevel;temperature;humidity
45864;BME280;31579;52.354;16.974;2023-05-22T00:00:29;34.3;;;-146.1;100.0
45864;BME280;31579;52.354;16.974;2023-05-22T00:01:33;31.9;;;-146.1;100.0
45864;BME280;31579;52.354;16.974;2023-05-22T00:02:37;26.0;;;-146.1;100.0
45864;BME280;31579;52.354;16.974;2023-05-22T00:03:41;23.4;;;-146.1;100.0
45864;BME280;31579;52.354;16.974;2023-05-22T00:04:45;19.9;;;-146.1;100.0
45864;BME280;31579;52.354;16.974;2023-05-22T00:05:49;18.6;;;-146.1;100.0
45864;BME280;31579;52.354;16.974;2023-05-22T00:06:53;17.8;;;-146.1;100.0
45864;BME280;31579;52.354;16.974;2023-05-22T00:07:57;17.5;;;-146.1;100.0
45864;BME280;31579;52.354;16.974;2023-05-22T00:09:01;12.9;;;-146.1;100.0
45864;BME280;31579;52.354;16.974;2023-05-22T00:10:05;8.5;;;-146.1;100.0
45864;BME280;31579;52.354;16.974;2023-05-22T00:11:09;12.4;;;-146.1;100.0
45864;BME280;31579;52.354;16.974;2023-05-22T00:12:13;10.9;;;-146.1;100.0
45864;BME280;31579;52.354;16.974;2023-05-22T00:13:17;7.5;;;-146.1;100.0
45864;BME280;31579;52.354;16.974;2023-05-22T00:14:21;2.6;;;-146.1;100.0
45864;BME280;31579;52.354;16.974;2023-05-22T00:15:25;-0.9;;;-146.1;100.0
45864;BME280;31579;52.354;16.974;2023-05-22T00:16:29;-3.2;;;-146.1;100.0
45864;BME280;31579;52.354;16.974;2023-05-22T00:17:31;-18.9;;;-146.1;100.0
45864;BME280;31579;52.354;16.974;2023-05-22T00:18:36;-7.9;;;-146.1;100.0
45864;BME280;31579;52.354;16.974;2023-05-22T00:19:40;-16.4;;;-146.1;100.0
45864;BME280;31579;52.354;16.974;2023-05-22T00:20:44;-21.5;;;-146.1;100.0
45864;BME280;31579;52.354;16.974;2023-05-22T00:21:49;-23.8;;;-146.1;100.0
45864;BME280;31579;52.354;16.974;2023-05-22T00:22:53;-25.8;;;-146.1;100.0
45864;BME280;31579;52.354;16.974;2023-05-22T00:23:57;-30.5;;;-146.1;100.0
45864;BME280;31579;52.354;16.974;2023-05-22T00:25:01;-45.3;;;-146.1;100.0
45864;BME280;31579;52.354;16.974;2023-05-22T00:26:02;-47.0;;;-146.1;100.0
45864;BME280;31579;52.354;16.974;2023-05-22T00:27:05;-43.8;;;-146.1;100.0
45864;BME280;31579;52.354;16.974;2023-05-22T00:28:10;-41.1;;;-146.1;100.0
45864;BME280;31579;52.354;16.974;2023-05-22T00:29:14;-42.5;;;-146.1;100.0
45864;BME280;31579;52.354;16.974;2023-05-22T00:30:18;-39.8;;;-146.1;100.0
45864;BME280;31579;52.354;16.974;2023-05-22T00:31:22;-38.8;;;-146.1;100.0
45864;BME280;31579;52.354;16.974;2023-05-22T00:32:26;-39.4;;;-146.1;100.0
45864;BME280;31579;52.354;16.974;2023-05-22T00:33:30;-42.0;;;-146.1;100.0
45864;BME280;31579;52.354;16.974;2023-05-22T00:34:34;-42.4;;;-146.1;100.0
45864;BME280;31579;52.354;16.974;2023-05-22T00:35:39;-41.3;;;-146.1;100.0
45864;BME280;31579;52.354;16.974;2023-05-22T00:36:43;-41.8;;;-146.1;100.0
45864;BME280;31579;52.354;16.974;2023-05-22T00:37:48;-43.6;;;-146.1;100.0
45864;BME280;31579;52.354;16.974;2023-05-22T00:38:52;-46.5;;;-146.1;100.0
45864;BME280;31579;52.354;16.974;2023-05-22T00:39:56;-48.1;;;-146.1;100.0
45864;BME280;31579;52.354;16.974;2023-05-22T00:41:01;-49.3;;;-146.1;100.0
45864;BME280;31579;52.354;16.974;2023-05-22T00:42:05;-51.8;;;-146.1;100.0
45864;BME280;31579;52.354;16.974;2023-05-22T00:43:09;-53.8;;;-146.1;100.0
45864;BME280;31579;52.354;16.974;2023-05-22T00:44:13;-57.4;;;-146.1;100.0
45864;BME280;31579;52.354;16.974;2023-05-22T00:45:17;-58.9;;;-146.1;100.0
45864;BME280;31579;52.354;16.974;2023-05-22T00:46:21;-60.5;;;-146.1;100.0
45864;BME280;31579;52.354;16.974;2023-05-22T00:47:25;-61.2;;;-146.1;100.0
45864;BME280;31579;52.354;16.974;2023-05-22T00:48:29;-59.2;;;-146.1;100.0
45864;BME280;31579;52.354;16.974;2023-05-22T00:49:33;-56.4;;;-146.1;100.0
45864;BME280;31579;52.354;16.974;2023-05-22T00:50:37;-57.2;;;-146.1;100.0
45864;BME280;31579;52.354;16.974;2023-05-22T00:51:41;-56.8;;;-146.1;100.0
45864;BME280;31579;52.354;16.974;2023-05-22T00:52:45;-57.3;;;-146.1;100.0
45864;BME280;31579;52.354;16.974;2023-05-22T00:53:49;-55.2;;;-146.1;100.0
45864;BME280;31579;52.354;16.974;2023-05-22T00:54:53;-56.4;;;-146.1;100.0
45864;BME280;31579;52.354;16.974;2023-05-22T00:55:57;-58.3;;;-146.1;100.0
45864;BME280;31579;52.354;16.974;2023-05-22T00:57:08;-53.4;;;-146.1;100.0
45864;BME280;31579;52.354;16.974;2023-05-22T00:58:14;-61.3;;;-146.1;100.0
45864;BME280;31579;52.354;16.974;2023-05-22T00:59:16;-62.2;;;-146.1;100.0
45864;BME280;31579;52.354;16.974;2023-05-22T01:00:20;-61.8;;;-146.1;100.0
45864;BME280;31579;52.354;16.974;2023-05-22T01:01:24;-63.8;;;-146.1;100.0
45864;BME280;31579;52.354;16.974;2023-05-22T01:02:28;-67.6;;;-146.1;100.0
45864;BME280;31579;52.354;16.974;2023-05-22T01:03:33;-68.6;;;-146.1;100.0
45864;BME280;31579;52.354;16.974;2023-05-22T01:04:36;-68.9;;;-146.1;100.0
45864;BME280;31579;52.354;16.974;2023-05-22T01:05:41;-69.8;;;-146.1;100.0
45864;BME280;31579;52.354;16.974;2023-05-22T01:06:44;-71.2;;;-146.1;100.0
45864;BME280;31579;52.354;16.974;2023-05-22T01:07:48;-72.4;;;-146.1;100.0
45864;BME280;31579;52.354;16.974;2023-05-22T01:08:52;-73.8;;;-146.1;100.0
45864;BME280;31579;52.354;16.974;2023-05-22T01:09:56;-74.6;;;-146.1;100.0
45864;BME280;31579;52.354;16.974;2023-05-22T01:15:25;-77.0;;;-146.1;100.0
45864;BME280;31579;52.354;16.974;2023-05-22T01:16:31;-78.0;;;-146.1;100.0
45864;BME280;31579;52.354;16.974;2023-05-22T01:21:08;-78.2;;;-146.1;100.0
45864;BME280;31579;52.354;16.974;2023-05-22T01:31:27;-83.4;;;-146.1;100.0
45864;BME280;31579;52.354;16.974;2023-05-22T01:32:30;-83.1;;;-146.1;100.0
45864;BME280;31579;52.354;16.974;2023-05-22T01:33:39;-84.0;;;-146.1;100.0
45864;BME280;31579;52.354;16.974;2023-05-22T01:34:38;-85.7;;;-146.1;100.0
45864;BME280;31579;52.354;16.974;2023-05-22T01:36:46;-84.6;;;-146.1;100.0
45864;BME280;31579;52.354;16.974;2023-05-22T01:37:50;-84.6;;;-146.1;100.0
45864;BME280;31579;52.354;16.974;2023-05-22T01:38:54;-84.9;;;-146.1;100.0
45864;BME280;31579;52.354;16.974;2023-05-22T01:39:58;-84.6;;;-146.1;100.0
45864;BME280;31579;52.354;16.974;2023-05-22T01:41:00;-92.3;;;-146.1;100.0
45864;BME280;31579;52.354;16.974;2023-05-22T01:42:05;-89.4;;;-146.1;100.0
45864;BME280;31579;52.354;16.974;2023-05-22T01:43:08;-86.8;;;-146.1;100.0
45864;BME280;31579;52.354;16.974;2023-05-22T01:44:12;-86.8;;;-146.1;100.0
45864;BME280;31579;52.354;16.974;2023-05-22T01:45:16;-88.5;;;-146.1;100.0
45864;BME280;31579;52.354;16.974;2023-05-22T01:46:23;-88.7;;;-146.1;100.0
45864;BME280;31579;52.354;16.974;2023-05-22T01:47:24;-89.6;;;-146.1;100.0
45864;BME280;31579;52.354;16.974;2023-05-22T01:48:28;-89.6;;;-146.1;100.0
45864;BME280;31579;52.354;16.974;2023-05-22T01:49:33;-90.1;;;-146.1;100.0
45864;BME280;31579;52.354;16.974;2023-05-22T01:50:37;-90.3;;;-146.1;100.0
45864;BME280;31579;52.354;16.974;2023-05-22T01:52:49;-91.6;;;-146.1;100.0
45864;BME280;31579;52.354;16.974;2023-05-22T01:53:51;-93.8;;;-146.1;100.0
45864;BME280;31579;52.354;16.974;2023-05-22T01:54:56;-94.3;;;-146.1;100.0
45864;BME280;31579;52.354;16.974;2023-05-22T01:56:00;-95.8;;;-146.1;100.0
45864;BME280;31579;52.354;16.974;2023-05-22T01:58:11;-97.6;;;-146.1;100.0
45864;BME280;31579;52.354;16.974;2023-05-22T01:59:12;-97.3;;;-146.1;100.0
45864;BME280;31579;52.354;16.974;2023-05-22T02:00:14;-97.5;;;-146.1;100.0
45864;BME280;31579;52.354;16.974;2023-05-22T02:01:18;-98.8;;;-146.1;100.0
45864;BME280;31579;52.354;16.974;2023-05-22T02:02:22;-100.0;;;-146.1;100.0
45864;BME280;31579;52.354;16.974;2023-05-22T02:03:26;-101.6;;;-146.1;100.0
45864;BME280;31579;52.354;16.974;2023-05-22T02:04:30;-100.7;;;-146.1;100.0
45864;BME280;31579;52.354;16.974;2023-05-22T02:05:34;-99.8;;;-146.1;100.0
45864;BME280;31579;52.354;16.974;2023-05-22T02:06:38;-100.1;;;-146.1;100.0
45864;BME280;31579;52.354;16.974;2023-05-22T02:07:42;-100.0;;;-146.1;100.0
45864;BME280;31579;52.354;16.974;2023-05-22T02:08:46;-98.7;;;-146.1;100.0
45864;BME280;31579;52.354;16.974;2023-05-22T02:09:50;-98.6;;;-146.1;100.0
45864;BME280;31579;52.354;16.974;2023-05-22T02:10:54;-99.1;;;-146.1;100.0
45864;BME280;31579;52.354;16.974;2023-05-22T02:11:58;-100.1;;;-146.1;100.0
45864;BME280;31579;52.354;16.974;2023-05-22T02:13:00;-105.8;;;-146.1;100.0
45864;BME280;31579;52.354;16.974;2023-05-22T02:14:03;-103.8;;;-146.1;100.0
45864;BME280;31579;52.354;16.974;2023-05-22T02:15:07;-101.5;;;-146.1;100.0
45864;BME280;31579;52.354;16.974;2023-05-22T02:16:11;-102.1;;;-146.1;100.0
45864;BME280;31579;52.354;16.974;2023-05-22T02:17:15;-103.2;;;-146.1;100.0
45864;BME280;31579;52.354;16.974;2023-05-22T02:18:19;-104.5;;;-146.1;100.0
45864;BME280;31579;52.354;16.974;2023-05-22T02:19:23;-105.2;;;-146.1;100.0
45864;BME280;31579;52.354;16.974;2023-05-22T02:20:28;-106.0;;;-146.1;100.0
45864;BME280;31579;52.354;16.974;2023-05-22T02:21:32;-107.4;;;-146.1;100.0
45864;BME280;31579;52.354;16.974;2023-05-22T02:22:35;-107.9;;;-146.1;100.0
45864;BME280;31579;52.354;16.974;2023-05-22T02:23:39;-108.6;;;-146.1;100.0
45864;BME280;31579;52.354;16.974;2023-05-22T02:24:45;-108.3;;;-146.1;100.0
45864;BME280;31579;52.354;16.974;2023-05-22T02:25:47;-106.3;;;-146.1;100.0
45864;BME280;31579;52.354;16.974;2023-05-22T02:26:51;-104.3;;;-146.1;100.0
45864;BME280;31579;52.354;16.974;2023-05-22T02:27:55;-103.1;;;-146.1;100.0
45864;BME280;31579;52.354;16.974;2023-05-22T02:28:59;-102.9;;;-146.1;100.0
45864;BME280;31579;52.354;16.974;2023-05-22T02:30:04;-102.6;;;-146.1;100.0
45864;BME280;31579;52.354;16.974;2023-05-22T02:31:07;-103.2;;;-146.1;100.0
45864;BME280;31579;52.354;16.974;2023-05-22T02:32:11;-105.0;;;-146.1;100.0
45864;BME280;31579;52.354;16.974;2023-05-22T02:33:15;-106.6;;;-146.1;100.0
45864;BME280;31579;52.354;16.974;2023-05-22T02:34:19;-108.8;;;-146.1;100.0
45864;BME280;31579;52.354;16.974;2023-05-22T02:35:23;-110.1;;;-146.1;100.0
45864;BME280;31579;52.354;16.974;2023-05-22T02:36:27;-112.7;;;-146.1;100.0
45864;BME280;31579;52.354;16.974;2023-05-22T02:37:33;-113.3;;;-146.1;100.0
45864;BME280;31579;52.354;16.974;2023-05-22T02:38:37;-111.7;;;-146.1;100.0
45864;BME280;31579;52.354;16.974;2023-05-22T02:39:40;-112.1;;;-146.1;100.0
45864;BME280;31579;52.354;16.974;2023-05-22T02:40:45;-112.8;;;-146.1;100.0
45864;BME280;31579;52.354;16.974;2023-05-22T02:41:49;-114.7;;;-146.1;100.0
45864;BME280;31579;52.354;16.974;2023-05-22T02:42:54;-115.2;;;-146.1;100.0
45864;BME280;31579;52.354;16.974;2023-05-22T02:43:57;-115.5;;;-146.1;100.0
45864;BME280;31579;52.354;16.974;2023-05-22T02:45:02;-113.4;;;-146.1;100.0
45864;BME280;31579;52.354;16.974;2023-05-22T02:46:03;-117.1;;;-146.1;100.0
45864;BME280;31579;52.354;16.974;2023-05-22T02:47:05;-119.1;;;-146.1;100.0
45864;BME280;31579;52.354;16.974;2023-05-22T02:48:09;-114.6;;;-146.1;100.0
45864;BME280;31579;52.354;16.974;2023-05-22T02:49:13;-116.5;;;-146.1;100.0
45864;BME280;31579;52.354;16.974;2023-05-22T02:50:17;-117.7;;;-146.1;100.0
45864;BME280;31579;52.354;16.974;2023-05-22T02:51:21;-117.2;;;-146.1;100.0
45864;BME280;31579;52.354;16.974;2023-05-22T02:52:25;-115.9;;;-146.1;100.0
45864;BME280;31579;52.354;16.974;2023-05-22T02:53:29;-114.4;;;-146.1;100.0
45864;BME280;31579;52.354;16.974;2023-05-22T02:54:33;-112.7;;;-146.1;100.0
45864;BME280;31579;52.354;16.974;2023-05-22T02:55:37;-112.6;;;-146.1;100.0
45864;BME280;31579;52.354;16.974;2023-05-22T02:56:42;-111.7;;;-146.1;100.0
45864;BME280;31579;52.354;16.974;2023-05-22T02:57:46;-110.4;;;-146.1;100.0
45864;BME280;31579;52.354;16.974;2023-05-22T02:58:49;-110.0;;;-146.1;100.0
45864;BME280;31579;52.354;16.974;2023-05-22T02:59:53;-108.7;;;-146.1;100.0
45864;BME280;31579;52.354;16.974;2023-05-22T03:00:57;-109.8;;;-146.1;100.0
45864;BME280;31579;52.354;16.974;2023-05-22T03:02:02;-109.2;;;-146.1;100.0
45864;BME280;31579;52.354;16.974;2023-05-22T03:03:05;-107.7;;;-146.1;100.0
45864;BME280;31579;52.354;16.974;2023-05-22T03:04:09;-108.3;;;-146.1;100.0
45864;BME280;31579;52.354;16.974;2023-05-22T03:05:14;-110.5;;;-146.1;100.0
45864;BME280;31579;52.354;16.974;2023-05-22T03:06:18;-114.1;;;-146.1;100.0
45864;BME280;31579;52.354;16.974;2023-05-22T03:07:22;-116.9;;;-146.1;100.0
45864;BME280;31579;52.354;16.974;2023-05-22T03:08:26;-119.6;;;-146.1;100.0
45864;BME280;31579;52.354;16.974;2023-05-22T03:09:30;-122.0;;;-146.1;100.0
45864;BME280;31579;52.354;16.974;2023-05-22T03:10:34;-124.1;;;-146.1;100.0
45864;BME280;31579;52.354;16.974;2023-05-22T03:11:38;-125.4;;;-146.1;100.0
45864;BME280;31579;52.354;16.974;2023-05-22T03:12:43;-126.6;;;-146.1;100.0
45864;BME280;31579;52.354;16.974;2023-05-22T03:13:47;-127.9;;;-146.1;100.0
45864;BME280;31579;52.354;16.974;2023-05-22T03:14:51;-129.0;;;-146.1;100.0
45864;BME280;31579;52.354;16.974;2023-05-22T03:15:56;-130.2;;;-146.1;100.0
45864;BME280;31579;52.354;16.974;2023-05-22T03:17:00;-131.7;;;-146.1;100.0
45864;BME280;31579;52.354;16.974;2023-05-22T03:18:18;-132.4;;;-146.1;100.0
45864;BME280;31579;52.354;16.974;2023-05-22T03:19:22;-133.3;;;-146.1;100.0
45864;BME280;31579;52.354;16.974;2023-05-22T03:20:26;-134.2;;;-146.1;100.0
45864;BME280;31579;52.354;16.974;2023-05-22T03:21:30;-135.2;;;-146.1;100.0
45864;BME280;31579;52.354;16.974;2023-05-22T03:22:34;-135.5;;;-146.1;100.0
45864;BME280;31579;52.354;16.974;2023-05-22T03:23:38;-135.7;;;-146.1;100.0
45864;BME280;31579;52.354;16.974;2023-05-22T03:24:42;-136.3;;;-146.1;100.0
45864;BME280;31579;52.354;16.974;2023-05-22T03:25:46;-137.2;;;-146.1;100.0
45864;BME280;31579;52.354;16.974;2023-05-22T03:26:51;-137.8;;;-146.1;100.0
45864;BME280;31579;52.354;16.974;2023-05-22T03:27:55;-138.0;;;-146.1;100.0
45864;BME280;31579;52.354;16.974;2023-05-22T03:28:20;-137.5;;;-146.1;100.0
45864;BME280;31579;52.354;16.974;2023-05-22T03:29:24;-137.7;;;-146.1;100.0
45864;BME280;31579;52.354;16.974;2023-05-22T03:30:28;-138.1;;;-146.1;100.0
45864;BME280;31579;52.354;16.974;2023-05-22T03:31:32;-137.5;;;-146.1;100.0
45864;BME280;31579;52.354;16.974;2023-05-22T03:32:36;-137.5;;;-146.1;100.0
45864;BME280;31579;52.354;16.974;2023-05-22T03:33:41;-138.3;;;-146.1;100.0
45864;BME280;31579;52.354;16.974;2023-05-22T03:34:45;-138.5;;;-146.1;100.0
45864;BME280;31579;52.354;16.974;2023-05-22T03:35:49;-138.8;;;-146.1;100.0
45864;BME280;31579;52.354;16.974;2023-05-22T03:36:54;-139.3;;;-146.1;100.0
45864;BME280;31579;52.354;16.974;2023-05-22T03:37:58;-139.4;;;-146.1;100.0
45864;BME280;31579;52.354;16.974;2023-05-22T03:39:02;-140.0;;;-146.1;100.0
45864;BME280;31579;52.354;16.974;2023-05-22T03:40:06;-140.1;;;-146.1;100.0
45864;BME280;31579;52.354;16.974;2023-05-22T03:41:10;-140.9;;;-146.1;100.0
45864;BME280;31579;52.354;16.974;2023-05-22T03:42:14;-140.4;;;-146.1;100.0
45864;BME280;31579;52.354;16.974;2023-05-22T03:43:30;-140.3;;;-146.1;100.0
45864;BME280;31579;52.354;16.974;2023-05-22T03:44:34;-140.6;;;-146.1;100.0
45864;BME280;31579;52.354;16.974;2023-05-22T03:45:38;-140.5;;;-146.1;100.0
45864;BME280;31579;52.354;16.974;2023-05-22T03:46:42;-140.7;;;-146.1;100.0
45864;BME280;31579;52.354;16.974;2023-05-22T03:47:46;-140.3;;;-146.1;100.0
45864;BME280;31579;52.354;16.974;2023-05-22T03:48:50;-141.2;;;-146.1;100.0
45864;BME280;31579;52.354;16.974;2023-05-22T03:49:54;-141.5;;;-146.1;100.0
45864;BME280;31579;52.354;16.974;2023-05-22T03:50:58;-140.3;;;-146.1;100.0
45864;BME280;31579;52.354;16.974;2023-05-22T03:52:03;-139.7;;;-146.1;100.0
45864;BME280;31579;52.354;16.974;2023-05-22T03:53:07;-139.2;;;-146.1;100.0
45864;BME280;31579;52.354;16.974;2023-05-22T03:54:11;-138.0;;;-146.1;100.0
45864;BME280;31579;52.354;16.974;2023-05-22T03:55:15;-137.6;;;-146.1;100.0
45864;BME280;31579;52.354;16.974;2023-05-22T03:56:19;-137.6;;;-146.1;100.0
45864;BME280;31579;52.354;16.974;2023-05-22T03:57:23;-136.5;;;-146.1;100.0
45864;BME280;31579;52.354;16.974;2023-05-22T03:58:27;-135.9;;;-146.1;100.0
45864;BME280;31579;52.354;16.974;2023-05-22T03:59:31;-136.5;;;-146.1;100.0
45864;BME280;31579;52.354;16.974;2023-05-22T04:00:35;-136.8;;;-146.1;100.0
45864;BME280;31579;52.354;16.974;2023-05-22T04:01:39;-136.8;;;-146.1;100.0
45864;BME280;31579;52.354;16.974;2023-05-22T04:02:43;-137.1;;;-146.1;100.0
45864;BME280;31579;52.354;16.974;2023-05-22T04:03:47;-137.3;;;-146.1;100.0
45864;BME280;31579;52.354;16.974;2023-05-22T04:04:51;-137.2;;;-146.1;100.0
45864;BME280;31579;52.354;16.974;2023-05-22T04:05:55;-137.6;;;-146.1;100.0
45864;BME280;31579;52.354;16.974;2023-05-22T04:06:59;-138.3;;;-146.1;100.0
45864;BME280;31579;52.354;16.974;2023-05-22T04:08:03;-138.7;;;-146.1;100.0
45864;BME280;31579;52.354;16.974;2023-05-22T04:10:11;-139.6;;;-146.1;100.0
45864;BME280;31579;52.354;16.974;2023-05-22T04:11:15;-139.7;;;-146.1;100.0
45864;BME280;31579;52.354;16.974;2023-05-22T04:12:26;-138.4;;;-146.1;100.0
45864;BME280;31579;52.354;16.974;2023-05-22T04:13:30;-139.0;;;-146.1;100.0
45864;BME280;31579;52.354;16.974;2023-05-22T04:14:34;-139.6;;;-146.1;100.0
45864;BME280;31579;52.354;16.974;2023-05-22T04:15:38;-140.2;;;-146.1;100.0
45864;BME280;31579;52.354;16.974;2023-05-22T04:16:42;-140.6;;;-146.1;100.0
45864;BME280;31579;52.354;16.974;2023-05-22T04:17:46;-141.0;;;-146.1;100.0
45864;BME280;31579;52.354;16.974;2023-05-22T04:18:50;-141.2;;;-146.1;100.0
45864;BME280;31579;52.354;16.974;2023-05-22T04:19:54;-141.0;;;-146.1;100.0
45864;BME280;31579;52.354;16.974;2023-05-22T04:20:58;-140.8;;;-146.1;100.0
45864;BME280;31579;52.354;16.974;2023-05-22T04:22:00;-123.4;;;-146.1;100.0
45864;BME280;31579;52.354;16.974;2023-05-22T04:23:05;-140.4;;;-146.1;100.0
45864;BME280;31579;52.354;16.974;2023-05-22T04:24:09;-140.3;;;-146.1;100.0
45864;BME280;31579;52.354;16.974;2023-05-22T04:25:13;-140.2;;;-146.1;100.0
45864;BME280;31579;52.354;16.974;2023-05-22T04:26:17;-140.1;;;-146.1;100.0
45864;BME280;31579;52.354;16.974;2023-05-22T04:27:22;-140.0;;;-146.1;100.0
45864;BME280;31579;52.354;16.974;2023-05-22T04:28:26;-140.4;;;-146.1;100.0
45864;BME280;31579;52.354;16.974;2023-05-22T04:29:31;-139.6;;;-146.1;100.0
45864;BME280;31579;52.354;16.974;2023-05-22T04:30:35;-139.2;;;-146.1;100.0
45864;BME280;31579;52.354;16.974;2023-05-22T04:31:39;-138.4;;;-146.1;100.0
45864;BME280;31579;52.354;16.974;2023-05-22T04:32:43;-137.0;;;-146.1;100.0
45864;BME280;31579;52.354;16.974;2023-05-22T04:33:47;-136.1;;;-146.1;100.0
45864;BME280;31579;52.354;16.974;2023-05-22T04:34:51;-132.7;;;-146.1;100.0
45864;BME280;31579;52.354;16.974;2023-05-22T04:35:55;-130.6;;;-146.1;100.0
45864;BME280;31579;52.354;16.974;2023-05-22T04:36:59;-127.7;;;-146.1;100.0
45864;BME280;31579;52.354;16.974;2023-05-22T04:38:03;-125.6;;;-146.1;100.0
45864;BME280;31579;52.354;16.974;2023-05-22T04:39:07;-122.5;;;-146.1;100.0
45864;BME280;31579;52.354;16.974;2023-05-22T04:40:11;-119.3;;;-146.1;100.0
45864;BME280;31579;52.354;16.974;2023-05-22T04:41:15;-115.5;;;-146.1;100.0
45864;BME280;31579;52.354;16.974;2023-05-22T04:42:19;-107.8;;;-146.1;100.0
45864;BME280;31579;52.354;16.974;2023-05-22T04:43:21;-106.3;;;-146.1;100.0
45864;BME280;31579;52.354;16.974;2023-05-22T04:44:26;-83.3;;;-146.1;100.0
45864;BME280;31579;52.354;16.974;2023-05-22T04:45:30;-74.5;;;-146.1;100.0
45864;BME280;31579;52.354;16.974;2023-05-22T04:46:34;-55.5;;;-146.1;100.0
45864;BME280;31579;52.354;16.974;2023-05-22T04:47:38;-35.4;;;-146.1;100.0
45864;BME280;31579;52.354;16.974;2023-05-22T04:48:42;-19.4;;;-146.1;100.0
45864;BME280;31579;52.354;16.974;2023-05-22T04:49:46;7.6;;;-146.1;100.0
45864;BME280;31579;52.354;16.974;2023-05-22T04:50:50;82.4;;;-146.1;100.0
45864;BME280;31579;52.354;16.974;2023-05-22T04:51:54;135.1;;;-146.1;100.0
45864;BME280;31579;52.354;16.974;2023-05-22T04:52:58;165.0;;;-146.1;100.0
45864;BME280;31579;52.354;16.974;2023-05-22T04:54:00;163.7;;;-146.1;100.0
45864;BME280;31579;52.354;16.974;2023-05-22T04:55:05;248.9;;;-146.1;100.0
45864;BME280;31579;52.354;16.974;2023-05-22T04:56:10;290.3;;;-146.1;100.0
45864;BME280;31579;52.354;16.974;2023-05-22T04:57:14;306.8;;;-146.1;100.0
45864;BME280;31579;52.354;16.974;2023-05-22T04:58:18;260.9;;;-146.1;100.0
45864;BME280;31579;52.354;16.974;2023-05-22T04:59:21;280.7;;;-146.1;100.0
45864;BME280;31579;52.354;16.974;2023-05-22T05:00:23;222.9;;;-146.1;100.0
45864;BME280;31579;52.354;16.974;2023-05-22T05:01:28;260.7;;;-146.1;100.0
45864;BME280;31579;52.354;16.974;2023-05-22T05:02:46;164.1;;;-146.1;100.0
45864;BME280;31579;52.354;16.974;2023-05-22T05:03:50;194.5;;;-146.1;100.0
45864;BME280;31579;52.354;16.974;2023-05-22T05:04:54;248.4;;;-146.1;100.0
45864;BME280;31579;52.354;16.974;2023-05-22T05:05:58;294.7;;;-146.1;100.0
45864;BME280;31579;52.354;16.974;2023-05-22T05:07:02;236.3;;;-146.1;100.0
45864;BME280;31579;52.354;16.974;2023-05-22T05:08:07;235.1;;;-146.1;100.0
45864;BME280;31579;52.354;16.974;2023-05-22T05:09:11;225.1;;;-146.1;100.0
45864;BME280;31579;52.354;16.974;2023-05-22T05:10:15;220.6;;;-146.1;100.0
45864;BME280;31579;52.354;16.974;2023-05-22T05:11:19;254.5;;;-146.1;100.0
45864;BME280;31579;52.354;16.974;2023-05-22T05:12:23;269.6;;;-146.1;100.0
45864;BME280;31579;52.354;16.974;2023-05-22T05:13:27;318.8;;;-146.1;100.0
45864;BME280;31579;52.354;16.974;2023-05-22T05:14:31;445.7;;;-146.1;100.0
45864;BME280;31579;52.354;16.974;2023-05-22T05:15:35;478.1;;;-146.1;100.0
45864;BME280;31579;52.354;16.974;2023-05-22T05:16:40;574.1;;;-146.1;100.0
45864;BME280;31579;52.354;16.974;2023-05-22T05:17:44;693.5;;;-146.1;100.0
45864;BME280;31579;52.354;16.974;2023-05-22T05:18:48;695.8;;;-146.1;100.0
45864;BME280;31579;52.354;16.974;2023-05-22T05:19:52;709.5;;;-146.1;100.0
45864;BME280;31579;52.354;16.974;2023-05-22T05:20:56;745.7;;;-146.1;100.0
45864;BME280;31579;52.354;16.974;2023-05-22T05:22:00;779.3;;;-146.1;100.0
45864;BME280;31579;52.354;16.974;2023-05-22T05:23:12;920.1;;;-146.1;100.0
45864;BME280;31579;52.354;16.974;2023-05-22T05:24:16;978.1;;;-146.1;100.0
45864;BME280;31579;52.354;16.974;2023-05-22T05:25:20;1014.8;;;-146.1;100.0
45864;BME280;31579;52.354;16.974;2023-05-22T05:26:24;1045.5;;;-146.1;100.0
45864;BME280;31579;52.354;16.974;2023-05-22T05:27:28;1047.1;;;-146.1;100.0
45864;BME280;31579;52.354;16.974;2023-05-22T05:28:32;1044.5;;;-146.1;100.0
45864;BME280;31579;52.354;16.974;2023-05-22T05:29:36;1050.7;;;-146.1;100.0
45864;BME280;31579;52.354;16.974;2023-05-22T05:30:40;1047.3;;;-146.1;100.0
45864;BME280;31579;52.354;16.974;2023-05-22T05:31:44;1051.0;;;-146.1;100.0
45864;BME280;31579;52.354;16.974;2023-05-22T05:32:49;1048.9;;;-146.1;100.0
45864;BME280;31579;52.354;16.974;2023-05-22T05:33:53;1048.6;;;-146.1;100.0
45864;BME280;31579;52.354;16.974;2023-05-22T05:34:58;1032.2;;;-146.1;100.0
45864;BME280;31579;52.354;16.974;2023-05-22T05:36:02;1031.6;;;-146.1;100.0
45864;BME280;31579;52.354;16.974;2023-05-22T05:37:07;999.4;;;-146.1;100.0
45864;BME280;31579;52.354;16.974;2023-05-22T05:38:11;998.9;;;-146.1;100.0
45864;BME280;31579;52.354;16.974;2023-05-22T05:39:15;1007.7;;;-146.1;100.0
45864;BME280;31579;52.354;16.974;2023-05-22T05:40:19;997.4;;;-146.1;100.0
45864;BME280;31579;52.354;16.974;2023-05-22T05:41:23;992.1;;;-146.1;100.0
45864;BME280;31579;52.354;16.974;2023-05-22T05:42:27;985.8;;;-146.1;100.0
45864;BME280;31579;52.354;16.974;2023-05-22T05:43:31;975.2;;;-146.1;100.0
45864;BME280;31579;52.354;16.974;2023-05-22T05:44:35;982.9;;;-146.1;100.0
45864;BME280;31579;52.354;16.974;2023-05-22T05:45:39;965.4;;;-146.1;100.0
45864;BME280;31579;52.354;16.974;2023-05-22T05:46:43;940.5;;;-146.1;100.0
45864;BME280;31579;52.354;16.974;2023-05-22T05:47:47;857.2;;;-146.1;100.0
45864;BME280;31579;52.354;16.974;2023-05-22T05:48:51;904.5;;;-146.1;100.0
45864;BME280;31579;52.354;16.974;2023-05-22T05:49:55;936.7;;;-146.1;100.0
45864;BME280;31579;52.354;16.974;2023-05-22T05:51:00;926.4;;;-146.1;100.0
45864;BME280;31579;52.354;16.974;2023-05-22T05:52:04;876.8;;;-146.1;100.0
45864;BME280;31579;52.354;16.974;2023-05-22T05:53:07;911.1;;;-146.1;100.0
45864;BME280;31579;52.354;16.974;2023-05-22T05:54:11;807.7;;;-146.1;100.0
45864;BME280;31579;52.354;16.974;2023-05-22T05:55:15;808.6;;;-146.1;100.0
45864;BME280;31579;52.354;16.974;2023-05-22T05:56:19;862.0;;;-146.1;100.0
45864;BME280;31579;52.354;16.974;2023-05-22T05:57:23;812.5;;;-146.1;100.0
45864;BME280;31579;52.354;16.974;2023-05-22T05:58:27;697.7;;;-146.1;100.0
45864;BME280;31579;52.354;16.974;2023-05-22T05:59:31;724.2;;;-146.1;100.0
45864;BME280;31579;52.354;16.974;2023-05-22T06:00:35;727.3;;;-146.1;100.0
45864;BME280;31579;52.354;16.974;2023-05-22T06:01:43;825.3;;;-146.1;100.0
45864;BME280;31579;52.354;16.974;2023-05-22T06:02:43;799.0;;;-146.1;100.0
45864;BME280;31579;52.354;16.974;2023-05-22T06:03:47;763.0;;;-146.1;100.0